sensor_id;sensor_type;location;lat;lon;timestamp;temperature;humidity
39099;DHT22;24844;52.380;7.018;2022-08-19T00:02:05;17.90;99.90
39099;DHT22;24844;52.380;7.018;2022-08-19T00:04:34;17.90;99.90
39099;DHT22;24844;52.380;7.018;2022-08-19T00:07:02;18.00;99.90
39099;DHT22;24844;52.380;7.018;2022-08-19T00:09:28;17.90;99.90
39099;DHT22;24844;52.380;7.018;2022-08-19T00:11:54;17.90;99.90
39099;DHT22;24844;52.380;7.018;2022-08-19T00:14:21;18.00;99.90
39099;DHT22;24844;52.380;7.018;2022-08-19T00:16:48;18.00;99.90
39099;DHT22;24844;52.380;7.018;2022-08-19T00:19:15;18.00;99.90
39099;DHT22;24844;52.380;7.018;2022-08-19T00:21:41;17.90;99.90
39099;DHT22;24844;52.380;7.018;2022-08-19T00:24:09;17.90;99.90
39099;DHT22;24844;52.380;7.018;2022-08-19T00:26:36;17.90;99.90
39099;DHT22;24844;52.380;7.018;2022-08-19T00:29:03;17.90;99.90
39099;DHT22;24844;52.380;7.018;2022-08-19T00:31:29;17.90;99.90
39099;DHT22;24844;52.380;7.018;2022-08-19T00:33:56;17.90;99.90
39099;DHT22;24844;52.380;7.018;2022-08-19T00:36:22;17.90;99.90
39099;DHT22;24844;52.380;7.018;2022-08-19T00:38:48;17.90;99.90
39099;DHT22;24844;52.380;7.018;2022-08-19T00:41:16;17.90;99.90
39099;DHT22;24844;52.380;7.018;2022-08-19T00:43:57;17.90;99.90
39099;DHT22;24844;52.380;7.018;2022-08-19T00:46:22;17.90;99.90
39099;DHT22;24844;52.380;7.018;2022-08-19T00:48:48;17.90;99.90
39099;DHT22;24844;52.380;7.018;2022-08-19T00:51:13;17.90;99.90
39099;DHT22;24844;52.380;7.018;2022-08-19T00:53:39;17.80;99.90
39099;DHT22;24844;52.380;7.018;2022-08-19T00:56:05;17.80;99.90
39099;DHT22;24844;52.380;7.018;2022-08-19T00:58:34;17.80;99.90
39099;DHT22;24844;52.380;7.018;2022-08-19T01:01:00;17.70;99.90
39099;DHT22;24844;52.380;7.018;2022-08-19T01:03:26;17.60;99.90
39099;DHT22;24844;52.380;7.018;2022-08-19T01:05:54;17.60;99.90
39099;DHT22;24844;52.380;7.018;2022-08-19T01:08:21;17.70;99.90
39099;DHT22;24844;52.380;7.018;2022-08-19T01:10:58;17.60;99.90
39099;DHT22;24844;52.380;7.018;2022-08-19T01:13:28;17.60;99.90
39099;DHT22;24844;52.380;7.018;2022-08-19T01:16:02;17.60;99.90
39099;DHT22;24844;52.380;7.018;2022-08-19T01:18:29;17.50;99.90
39099;DHT22;24844;52.380;7.018;2022-08-19T01:20:58;17.50;99.90
39099;DHT22;24844;52.380;7.018;2022-08-19T01:23:26;17.40;99.90
39099;DHT22;24844;52.380;7.018;2022-08-19T01:26:18;17.40;99.90
39099;DHT22;24844;52.380;7.018;2022-08-19T01:28:46;17.40;99.90
39099;DHT22;24844;52.380;7.018;2022-08-19T01:31:15;17.40;99.90
39099;DHT22;24844;52.380;7.018;2022-08-19T01:33:42;17.40;99.90
39099;DHT22;24844;52.380;7.018;2022-08-19T01:36:11;17.50;99.90
39099;DHT22;24844;52.380;7.018;2022-08-19T01:38:39;17.40;99.90
39099;DHT22;24844;52.380;7.018;2022-08-19T01:41:05;17.40;99.90
39099;DHT22;24844;52.380;7.018;2022-08-19T01:43:31;17.40;99.90
39099;DHT22;24844;52.380;7.018;2022-08-19T01:45:57;17.30;99.90
39099;DHT22;24844;52.380;7.018;2022-08-19T01:48:23;17.30;99.90
39099;DHT22;24844;52.380;7.018;2022-08-19T01:50:49;17.20;99.90
39099;DHT22;24844;52.380;7.018;2022-08-19T01:53:15;17.20;99.90
39099;DHT22;24844;52.380;7.018;2022-08-19T01:55:42;17.20;99.90
39099;DHT22;24844;52.380;7.018;2022-08-19T01:58:16;17.10;99.90
39099;DHT22;24844;52.380;7.018;2022-08-19T02:00:42;17.10;99.90
39099;DHT22;24844;52.380;7.018;2022-08-19T02:03:08;17.10;99.90
39099;DHT22;24844;52.380;7.018;2022-08-19T02:05:35;17.10;99.90
39099;DHT22;24844;52.380;7.018;2022-08-19T02:08:00;17.00;99.90
39099;DHT22;24844;52.380;7.018;2022-08-19T02:10:26;16.90;99.90
39099;DHT22;24844;52.380;7.018;2022-08-19T02:12:51;16.90;99.90
39099;DHT22;24844;52.380;7.018;2022-08-19T02:15:18;16.80;99.90
39099;DHT22;24844;52.380;7.018;2022-08-19T02:17:45;16.80;99.90
39099;DHT22;24844;52.380;7.018;2022-08-19T02:20:12;16.70;99.90
39099;DHT22;24844;52.380;7.018;2022-08-19T02:22:39;16.70;99.90
39099;DHT22;24844;52.380;7.018;2022-08-19T02:25:07;16.70;99.90
39099;DHT22;24844;52.380;7.018;2022-08-19T02:27:32;16.70;99.90
39099;DHT22;24844;52.380;7.018;2022-08-19T02:29:59;16.70;99.90
39099;DHT22;24844;52.380;7.018;2022-08-19T02:32:25;16.70;99.90
39099;DHT22;24844;52.380;7.018;2022-08-19T02:34:50;16.70;99.90
39099;DHT22;24844;52.380;7.018;2022-08-19T02:37:16;16.60;99.90
39099;DHT22;24844;52.380;7.018;2022-08-19T02:40:00;16.60;99.90
39099;DHT22;24844;52.380;7.018;2022-08-19T02:42:26;16.60;99.90
39099;DHT22;24844;52.380;7.018;2022-08-19T02:44:52;16.50;99.90
39099;DHT22;24844;52.380;7.018;2022-08-19T02:47:18;16.60;99.90
39099;DHT22;24844;52.380;7.018;2022-08-19T02:49:45;16.60;99.90
39099;DHT22;24844;52.380;7.018;2022-08-19T02:52:11;16.60;99.90
39099;DHT22;24844;52.380;7.018;2022-08-19T02:54:37;16.60;99.90
39099;DHT22;24844;52.380;7.018;2022-08-19T02:57:04;16.50;99.90
39099;DHT22;24844;52.380;7.018;2022-08-19T02:59:30;16.50;99.90
39099;DHT22;24844;52.380;7.018;2022-08-19T03:01:56;16.50;99.90
39099;DHT22;24844;52.380;7.018;2022-08-19T03:04:22;16.60;99.90
39099;DHT22;24844;52.380;7.018;2022-08-19T03:06:48;16.50;99.90
39099;DHT22;24844;52.380;7.018;2022-08-19T03:09:14;16.50;99.90
39099;DHT22;24844;52.380;7.018;2022-08-19T03:11:41;16.50;99.90
39099;DHT22;24844;52.380;7.018;2022-08-19T03:14:08;16.50;99.90
39099;DHT22;24844;52.380;7.018;2022-08-19T03:16:44;16.50;99.90
39099;DHT22;24844;52.380;7.018;2022-08-19T03:19:09;16.50;99.90
39099;DHT22;24844;52.380;7.018;2022-08-19T03:21:35;16.40;99.90
39099;DHT22;24844;52.380;7.018;2022-08-19T03:24:05;16.40;99.90
39099;DHT22;24844;52.380;7.018;2022-08-19T03:26:31;16.40;99.90
39099;DHT22;24844;52.380;7.018;2022-08-19T03:28:57;16.30;99.90
39099;DHT22;24844;52.380;7.018;2022-08-19T03:31:23;16.30;99.90
39099;DHT22;24844;52.380;7.018;2022-08-19T03:33:50;16.30;99.90
39099;DHT22;24844;52.380;7.018;2022-08-19T03:36:22;16.20;99.90
39099;DHT22;24844;52.380;7.018;2022-08-19T03:38:54;16.20;99.90
39099;DHT22;24844;52.380;7.018;2022-08-19T03:41:23;16.20;99.90
39099;DHT22;24844;52.380;7.018;2022-08-19T03:43:49;16.30;99.90
39099;DHT22;24844;52.380;7.018;2022-08-19T03:46:21;16.20;99.90
39099;DHT22;24844;52.380;7.018;2022-08-19T03:48:48;16.30;99.90
39099;DHT22;24844;52.380;7.018;2022-08-19T03:51:37;16.30;99.90
39099;DHT22;24844;52.380;7.018;2022-08-19T03:54:03;16.30;99.90
39099;DHT22;24844;52.380;7.018;2022-08-19T03:56:30;16.20;99.90
39099;DHT22;24844;52.380;7.018;2022-08-19T03:58:57;16.20;99.90
39099;DHT22;24844;52.380;7.018;2022-08-19T04:01:25;16.20;99.90
39099;DHT22;24844;52.380;7.018;2022-08-19T04:03:52;16.20;99.90
39099;DHT22;24844;52.380;7.018;2022-08-19T04:06:30;16.10;99.90
39099;DHT22;24844;52.380;7.018;2022-08-19T04:08:57;16.10;99.90
39099;DHT22;24844;52.380;7.018;2022-08-19T04:11:28;16.10;99.90
39099;DHT22;24844;52.380;7.018;2022-08-19T04:13:55;16.00;99.90
39099;DHT22;24844;52.380;7.018;2022-08-19T04:16:22;16.00;99.90
39099;DHT22;24844;52.380;7.018;2022-08-19T04:18:49;16.00;99.90
39099;DHT22;24844;52.380;7.018;2022-08-19T04:21:20;16.00;99.90
39099;DHT22;24844;52.380;7.018;2022-08-19T04:23:46;16.00;99.90
39099;DHT22;24844;52.380;7.018;2022-08-19T04:26:14;16.00;99.90
39099;DHT22;24844;52.380;7.018;2022-08-19T04:28:39;15.90;99.90
39099;DHT22;24844;52.380;7.018;2022-08-19T04:31:05;15.90;99.90
39099;DHT22;24844;52.380;7.018;2022-08-19T04:33:30;15.90;99.90
39099;DHT22;24844;52.380;7.018;2022-08-19T04:35:56;15.80;99.90
39099;DHT22;24844;52.380;7.018;2022-08-19T04:38:23;15.90;99.90
39099;DHT22;24844;52.380;7.018;2022-08-19T04:40:51;15.90;99.90
39099;DHT22;24844;52.380;7.018;2022-08-19T04:43:37;15.90;99.90
39099;DHT22;24844;52.380;7.018;2022-08-19T04:46:11;15.90;99.90
39099;DHT22;24844;52.380;7.018;2022-08-19T04:48:38;16.00;99.90
39099;DHT22;24844;52.380;7.018;2022-08-19T04:51:08;15.90;99.90
39099;DHT22;24844;52.380;7.018;2022-08-19T04:53:36;16.00;99.90
39099;DHT22;24844;52.380;7.018;2022-08-19T04:56:13;16.10;99.90
39099;DHT22;24844;52.380;7.018;2022-08-19T04:58:41;16.10;99.90
39099;DHT22;24844;52.380;7.018;2022-08-19T05:01:08;16.10;99.90
39099;DHT22;24844;52.380;7.018;2022-08-19T05:03:35;16.20;99.90
39099;DHT22;24844;52.380;7.018;2022-08-19T05:06:06;16.30;99.90
39099;DHT22;24844;52.380;7.018;2022-08-19T05:08:33;16.30;99.90
39099;DHT22;24844;52.380;7.018;2022-08-19T05:10:59;16.40;99.90
39099;DHT22;24844;52.380;7.018;2022-08-19T05:13:25;16.40;99.90
39099;DHT22;24844;52.380;7.018;2022-08-19T05:15:58;16.50;99.90
39099;DHT22;24844;52.380;7.018;2022-08-19T05:18:24;16.60;99.90
39099;DHT22;24844;52.380;7.018;2022-08-19T05:21:10;16.60;99.90
39099;DHT22;24844;52.380;7.018;2022-08-19T05:23:55;16.80;99.90
39099;DHT22;24844;52.380;7.018;2022-08-19T05:26:20;16.90;99.90
39099;DHT22;24844;52.380;7.018;2022-08-19T05:28:46;17.10;99.90
39099;DHT22;24844;52.380;7.018;2022-08-19T05:31:11;17.00;99.90
39099;DHT22;24844;52.380;7.018;2022-08-19T05:33:38;17.00;99.90
39099;DHT22;24844;52.380;7.018;2022-08-19T05:36:05;17.20;99.90
39099;DHT22;24844;52.380;7.018;2022-08-19T05:38:33;17.30;99.90
39099;DHT22;24844;52.380;7.018;2022-08-19T05:40:58;17.40;99.90
39099;DHT22;24844;52.380;7.018;2022-08-19T05:43:24;17.50;99.90
39099;DHT22;24844;52.380;7.018;2022-08-19T05:45:50;17.60;99.90
39099;DHT22;24844;52.380;7.018;2022-08-19T05:48:16;17.70;99.90
39099;DHT22;24844;52.380;7.018;2022-08-19T05:50:46;17.70;99.90
39099;DHT22;24844;52.380;7.018;2022-08-19T05:53:12;17.70;99.90
39099;DHT22;24844;52.380;7.018;2022-08-19T05:55:37;17.60;99.90
39099;DHT22;24844;52.380;7.018;2022-08-19T05:58:04;17.70;99.90
39099;DHT22;24844;52.380;7.018;2022-08-19T06:00:33;17.70;99.90
39099;DHT22;24844;52.380;7.018;2022-08-19T06:02:58;17.60;99.90
39099;DHT22;24844;52.380;7.018;2022-08-19T06:05:24;17.60;99.90
39099;DHT22;24844;52.380;7.018;2022-08-19T06:07:50;17.60;99.90
39099;DHT22;24844;52.380;7.018;2022-08-19T06:10:15;17.60;99.90
39099;DHT22;24844;52.380;7.018;2022-08-19T06:12:41;17.70;99.90
39099;DHT22;24844;52.380;7.018;2022-08-19T06:15:09;17.60;99.90
39099;DHT22;24844;52.380;7.018;2022-08-19T06:17:35;17.50;99.90
39099;DHT22;24844;52.380;7.018;2022-08-19T06:20:06;17.40;99.90
39099;DHT22;24844;52.380;7.018;2022-08-19T06:22:40;17.40;99.90
39099;DHT22;24844;52.380;7.018;2022-08-19T06:25:07;17.30;99.90
39099;DHT22;24844;52.380;7.018;2022-08-19T06:27:34;17.30;99.90
39099;DHT22;24844;52.380;7.018;2022-08-19T06:30:01;17.30;99.90
39099;DHT22;24844;52.380;7.018;2022-08-19T06:32:26;17.40;99.90
39099;DHT22;24844;52.380;7.018;2022-08-19T06:34:52;17.30;99.90
39099;DHT22;24844;52.380;7.018;2022-08-19T06:37:17;17.20;99.90
39099;DHT22;24844;52.380;7.018;2022-08-19T06:39:44;17.30;99.90
39099;DHT22;24844;52.380;7.018;2022-08-19T06:42:11;17.30;99.90
39099;DHT22;24844;52.380;7.018;2022-08-19T06:44:40;17.40;99.90
39099;DHT22;24844;52.380;7.018;2022-08-19T06:47:08;17.60;99.90
39099;DHT22;24844;52.380;7.018;2022-08-19T06:49:34;17.80;99.90
39099;DHT22;24844;52.380;7.018;2022-08-19T06:52:01;18.10;99.90
39099;DHT22;24844;52.380;7.018;2022-08-19T06:54:27;18.30;99.90
39099;DHT22;24844;52.380;7.018;2022-08-19T06:56:55;18.60;99.90
39099;DHT22;24844;52.380;7.018;2022-08-19T06:59:22;18.80;99.90
39099;DHT22;24844;52.380;7.018;2022-08-19T07:01:54;19.20;99.90
39099;DHT22;24844;52.380;7.018;2022-08-19T07:04:23;19.40;99.90
39099;DHT22;24844;52.380;7.018;2022-08-19T07:06:50;19.60;99.90
39099;DHT22;24844;52.380;7.018;2022-08-19T07:09:18;19.80;99.90
39099;DHT22;24844;52.380;7.018;2022-08-19T07:11:46;20.10;99.90
39099;DHT22;24844;52.380;7.018;2022-08-19T07:14:12;20.30;99.90
39099;DHT22;24844;52.380;7.018;2022-08-19T07:16:37;20.60;99.90
39099;DHT22;24844;52.380;7.018;2022-08-19T07:19:03;20.90;99.90
39099;DHT22;24844;52.380;7.018;2022-08-19T07:21:28;21.20;99.90
39099;DHT22;24844;52.380;7.018;2022-08-19T07:23:59;21.40;99.90
39099;DHT22;24844;52.380;7.018;2022-08-19T07:26:30;21.70;99.90
39099;DHT22;24844;52.380;7.018;2022-08-19T07:28:57;21.90;99.90
39099;DHT22;24844;52.380;7.018;2022-08-19T07:31:26;22.10;99.90
39099;DHT22;24844;52.380;7.018;2022-08-19T07:33:53;22.50;99.90
39099;DHT22;24844;52.380;7.018;2022-08-19T07:36:25;22.90;99.90
39099;DHT22;24844;52.380;7.018;2022-08-19T07:38:54;23.50;99.90
39099;DHT22;24844;52.380;7.018;2022-08-19T07:41:24;24.00;99.90
39099;DHT22;24844;52.380;7.018;2022-08-19T07:43:50;25.10;99.90
39099;DHT22;24844;52.380;7.018;2022-08-19T07:46:17;26.10;99.90
39099;DHT22;24844;52.380;7.018;2022-08-19T07:48:45;26.80;99.90
39099;DHT22;24844;52.380;7.018;2022-08-19T07:51:13;27.40;99.90
39099;DHT22;24844;52.380;7.018;2022-08-19T07:53:39;28.20;99.90
39099;DHT22;24844;52.380;7.018;2022-08-19T07:56:05;27.90;99.90
39099;DHT22;24844;52.380;7.018;2022-08-19T07:58:35;30.50;99.90
39099;DHT22;24844;52.380;7.018;2022-08-19T08:01:01;31.40;99.90
39099;DHT22;24844;52.380;7.018;2022-08-19T08:03:28;32.10;99.90
39099;DHT22;24844;52.380;7.018;2022-08-19T08:06:13;32.90;99.90
39099;DHT22;24844;52.380;7.018;2022-08-19T08:08:59;33.50;99.90
39099;DHT22;24844;52.380;7.018;2022-08-19T08:11:42;34.50;99.90
39099;DHT22;24844;52.380;7.018;2022-08-19T08:14:08;34.70;97.50
39099;DHT22;24844;52.380;7.018;2022-08-19T08:16:36;35.50;97.00
39099;DHT22;24844;52.380;7.018;2022-08-19T08:19:04;35.30;95.40
39099;DHT22;24844;52.380;7.018;2022-08-19T08:21:31;35.90;94.40
39099;DHT22;24844;52.380;7.018;2022-08-19T08:23:57;36.70;92.80
39099;DHT22;24844;52.380;7.018;2022-08-19T08:26:23;37.00;91.60
39099;DHT22;24844;52.380;7.018;2022-08-19T08:28:51;36.80;91.40
39099;DHT22;24844;52.380;7.018;2022-08-19T08:31:17;37.10;90.70
39099;DHT22;24844;52.380;7.018;2022-08-19T08:33:44;36.90;90.10
39099;DHT22;24844;52.380;7.018;2022-08-19T08:36:11;36.10;86.80
39099;DHT22;24844;52.380;7.018;2022-08-19T08:38:37;36.20;85.00
39099;DHT22;24844;52.380;7.018;2022-08-19T08:43:49;36.10;81.00
39099;DHT22;24844;52.380;7.018;2022-08-19T08:49:24;36.40;81.50
39099;DHT22;24844;52.380;7.018;2022-08-19T08:52:11;37.00;81.30
39099;DHT22;24844;52.380;7.018;2022-08-19T08:54:41;37.40;79.10
39099;DHT22;24844;52.380;7.018;2022-08-19T08:57:12;37.40;78.50
39099;DHT22;24844;52.380;7.018;2022-08-19T08:59:40;37.00;77.50
39099;DHT22;24844;52.380;7.018;2022-08-19T09:02:07;37.10;75.70
39099;DHT22;24844;52.380;7.018;2022-08-19T09:04:37;37.70;76.10
39099;DHT22;24844;52.380;7.018;2022-08-19T09:09:49;38.40;71.60
39099;DHT22;24844;52.380;7.018;2022-08-19T09:12:30;38.60;70.70
39099;DHT22;24844;52.380;7.018;2022-08-19T09:15:02;38.20;68.80
39099;DHT22;24844;52.380;7.018;2022-08-19T09:17:30;38.60;68.00
39099;DHT22;24844;52.380;7.018;2022-08-19T09:20:03;38.00;68.30
39099;DHT22;24844;52.380;7.018;2022-08-19T09:22:33;37.60;67.20
39099;DHT22;24844;52.380;7.018;2022-08-19T09:24:59;37.50;67.40
39099;DHT22;24844;52.380;7.018;2022-08-19T09:27:25;38.00;67.40
39099;DHT22;24844;52.380;7.018;2022-08-19T09:29:52;38.00;67.20
39099;DHT22;24844;52.380;7.018;2022-08-19T09:32:20;38.00;66.30
39099;DHT22;24844;52.380;7.018;2022-08-19T09:34:45;38.20;66.50
39099;DHT22;24844;52.380;7.018;2022-08-19T09:37:13;37.60;66.10
39099;DHT22;24844;52.380;7.018;2022-08-19T09:39:40;37.10;66.30
39099;DHT22;24844;52.380;7.018;2022-08-19T09:42:07;37.30;65.50
39099;DHT22;24844;52.380;7.018;2022-08-19T09:44:40;37.00;66.00
39099;DHT22;24844;52.380;7.018;2022-08-19T09:47:06;37.50;66.10
39099;DHT22;24844;52.380;7.018;2022-08-19T09:49:32;36.40;66.90
39099;DHT22;24844;52.380;7.018;2022-08-19T09:51:59;37.30;66.60
39099;DHT22;24844;52.380;7.018;2022-08-19T09:54:25;38.10;64.60
39099;DHT22;24844;52.380;7.018;2022-08-19T09:56:52;38.40;65.00
39099;DHT22;24844;52.380;7.018;2022-08-19T09:59:18;39.30;64.40
39099;DHT22;24844;52.380;7.018;2022-08-19T10:01:43;39.70;63.40
39099;DHT22;24844;52.380;7.018;2022-08-19T10:04:09;39.20;63.30
39099;DHT22;24844;52.380;7.018;2022-08-19T10:06:37;39.60;62.70
39099;DHT22;24844;52.380;7.018;2022-08-19T10:09:04;40.00;62.20
39099;DHT22;24844;52.380;7.018;2022-08-19T10:11:32;40.70;64.90
39099;DHT22;24844;52.380;7.018;2022-08-19T10:13:58;40.20;69.60
39099;DHT22;24844;52.380;7.018;2022-08-19T10:16:25;40.80;70.70
39099;DHT22;24844;52.380;7.018;2022-08-19T10:18:51;40.10;70.40
39099;DHT22;24844;52.380;7.018;2022-08-19T10:21:21;39.60;72.60
39099;DHT22;24844;52.380;7.018;2022-08-19T10:23:48;39.60;73.10
39099;DHT22;24844;52.380;7.018;2022-08-19T10:26:27;39.10;71.40
39099;DHT22;24844;52.380;7.018;2022-08-19T10:28:53;39.20;71.20
39099;DHT22;24844;52.380;7.018;2022-08-19T10:31:22;39.50;71.30
39099;DHT22;24844;52.380;7.018;2022-08-19T10:33:49;39.60;70.40
39099;DHT22;24844;52.380;7.018;2022-08-19T10:36:21;40.10;69.90
39099;DHT22;24844;52.380;7.018;2022-08-19T10:38:50;40.30;69.30
39099;DHT22;24844;52.380;7.018;2022-08-19T10:41:22;40.20;69.30
39099;DHT22;24844;52.380;7.018;2022-08-19T10:43:51;40.80;68.90
39099;DHT22;24844;52.380;7.018;2022-08-19T10:48:47;41.30;83.40
39099;DHT22;24844;52.380;7.018;2022-08-19T10:51:14;41.40;85.10
39099;DHT22;24844;52.380;7.018;2022-08-19T10:53:59;40.60;84.10
39099;DHT22;24844;52.380;7.018;2022-08-19T10:56:25;39.80;83.60
39099;DHT22;24844;52.380;7.018;2022-08-19T10:59:10;39.40;83.30
39099;DHT22;24844;52.380;7.018;2022-08-19T11:01:37;38.50;83.50
39099;DHT22;24844;52.380;7.018;2022-08-19T11:04:04;38.20;84.30
39099;DHT22;24844;52.380;7.018;2022-08-19T11:06:31;37.20;84.50
39099;DHT22;24844;52.380;7.018;2022-08-19T11:08:57;36.40;85.80
39099;DHT22;24844;52.380;7.018;2022-08-19T11:11:23;35.30;85.80
39099;DHT22;24844;52.380;7.018;2022-08-19T11:13:49;34.70;86.60
39099;DHT22;24844;52.380;7.018;2022-08-19T11:16:22;34.00;88.20
39099;DHT22;24844;52.380;7.018;2022-08-19T11:18:52;33.50;89.80
39099;DHT22;24844;52.380;7.018;2022-08-19T11:21:38;32.90;90.30
39099;DHT22;24844;52.380;7.018;2022-08-19T11:24:11;32.70;90.30
39099;DHT22;24844;52.380;7.018;2022-08-19T11:26:39;32.80;90.30
39099;DHT22;24844;52.380;7.018;2022-08-19T11:29:06;32.90;90.80
39099;DHT22;24844;52.380;7.018;2022-08-19T11:31:38;33.10;90.90
39099;DHT22;24844;52.380;7.018;2022-08-19T11:34:06;32.50;90.00
39099;DHT22;24844;52.380;7.018;2022-08-19T11:36:33;31.90;91.30
39099;DHT22;24844;52.380;7.018;2022-08-19T11:38:59;32.00;91.30
39099;DHT22;24844;52.380;7.018;2022-08-19T11:41:25;31.30;91.40
39099;DHT22;24844;52.380;7.018;2022-08-19T11:43:52;31.60;92.20
39099;DHT22;24844;52.380;7.018;2022-08-19T11:46:21;31.90;92.10
39099;DHT22;24844;52.380;7.018;2022-08-19T11:48:48;32.00;91.80
39099;DHT22;24844;52.380;7.018;2022-08-19T11:51:17;31.80;92.30
39099;DHT22;24844;52.380;7.018;2022-08-19T11:53:44;31.90;92.10
39099;DHT22;24844;52.380;7.018;2022-08-19T11:56:11;31.60;92.10
39099;DHT22;24844;52.380;7.018;2022-08-19T11:58:38;32.00;91.60
39099;DHT22;24844;52.380;7.018;2022-08-19T12:01:12;31.90;91.70
39099;DHT22;24844;52.380;7.018;2022-08-19T12:03:38;31.90;91.30
39099;DHT22;24844;52.380;7.018;2022-08-19T12:06:06;31.80;90.80
39099;DHT22;24844;52.380;7.018;2022-08-19T12:08:32;32.00;90.00
39099;DHT22;24844;52.380;7.018;2022-08-19T12:10:57;31.60;90.50
39099;DHT22;24844;52.380;7.018;2022-08-19T12:13:23;31.50;90.60
39099;DHT22;24844;52.380;7.018;2022-08-19T12:15:49;31.40;90.60
39099;DHT22;24844;52.380;7.018;2022-08-19T12:18:15;31.40;90.50
39099;DHT22;24844;52.380;7.018;2022-08-19T12:20:42;31.00;90.70
39099;DHT22;24844;52.380;7.018;2022-08-19T12:23:08;30.80;90.70
39099;DHT22;24844;52.380;7.018;2022-08-19T12:25:35;30.50;90.60
39099;DHT22;24844;52.380;7.018;2022-08-19T12:28:02;30.50;90.80
39099;DHT22;24844;52.380;7.018;2022-08-19T12:30:27;30.60;90.90
39099;DHT22;24844;52.380;7.018;2022-08-19T12:32:53;30.20;91.20
39099;DHT22;24844;52.380;7.018;2022-08-19T12:35:19;30.20;91.40
39099;DHT22;24844;52.380;7.018;2022-08-19T12:37:47;30.40;91.20
39099;DHT22;24844;52.380;7.018;2022-08-19T12:40:13;30.60;90.80
39099;DHT22;24844;52.380;7.018;2022-08-19T12:42:40;30.90;90.60
39099;DHT22;24844;52.380;7.018;2022-08-19T12:45:13;30.80;91.00
39099;DHT22;24844;52.380;7.018;2022-08-19T12:47:39;30.70;90.90
39099;DHT22;24844;52.380;7.018;2022-08-19T12:50:05;30.70;91.20
39099;DHT22;24844;52.380;7.018;2022-08-19T12:52:36;30.30;91.70
39099;DHT22;24844;52.380;7.018;2022-08-19T12:55:08;30.20;91.90
39099;DHT22;24844;52.380;7.018;2022-08-19T12:57:34;30.30;92.30
39099;DHT22;24844;52.380;7.018;2022-08-19T13:00:05;30.30;92.00
39099;DHT22;24844;52.380;7.018;2022-08-19T13:02:33;30.40;91.90
39099;DHT22;24844;52.380;7.018;2022-08-19T13:05:00;30.50;91.90
39099;DHT22;24844;52.380;7.018;2022-08-19T13:07:25;30.50;92.10
39099;DHT22;24844;52.380;7.018;2022-08-19T13:09:51;30.70;92.50
39099;DHT22;24844;52.380;7.018;2022-08-19T13:12:17;30.60;92.80
39099;DHT22;24844;52.380;7.018;2022-08-19T13:14:45;30.50;92.90
39099;DHT22;24844;52.380;7.018;2022-08-19T13:17:16;30.80;92.60
39099;DHT22;24844;52.380;7.018;2022-08-19T13:19:42;30.60;92.70
39099;DHT22;24844;52.380;7.018;2022-08-19T13:22:07;30.90;92.50
39099;DHT22;24844;52.380;7.018;2022-08-19T13:24:33;30.80;92.50
39099;DHT22;24844;52.380;7.018;2022-08-19T13:27:00;31.00;92.50
39099;DHT22;24844;52.380;7.018;2022-08-19T13:29:25;30.90;92.70
39099;DHT22;24844;52.380;7.018;2022-08-19T13:32:10;31.10;92.50
39099;DHT22;24844;52.380;7.018;2022-08-19T13:34:54;31.20;92.70
39099;DHT22;24844;52.380;7.018;2022-08-19T13:37:19;31.40;92.60
39099;DHT22;24844;52.380;7.018;2022-08-19T13:40:05;31.50;92.00
39099;DHT22;24844;52.380;7.018;2022-08-19T13:42:31;31.70;91.60
39099;DHT22;24844;52.380;7.018;2022-08-19T13:44:57;31.80;91.40
39099;DHT22;24844;52.380;7.018;2022-08-19T13:47:24;32.00;91.40
39099;DHT22;24844;52.380;7.018;2022-08-19T13:49:49;32.10;91.70
39099;DHT22;24844;52.380;7.018;2022-08-19T13:52:15;32.00;91.80
39099;DHT22;24844;52.380;7.018;2022-08-19T13:54:40;32.20;91.80
39099;DHT22;24844;52.380;7.018;2022-08-19T13:57:06;31.90;91.40
39099;DHT22;24844;52.380;7.018;2022-08-19T13:59:31;31.90;90.80
39099;DHT22;24844;52.380;7.018;2022-08-19T14:01:59;31.80;90.50
39099;DHT22;24844;52.380;7.018;2022-08-19T14:04:25;31.90;90.50
39099;DHT22;24844;52.380;7.018;2022-08-19T14:06:50;32.20;90.30
39099;DHT22;24844;52.380;7.018;2022-08-19T14:09:16;32.20;90.40
39099;DHT22;24844;52.380;7.018;2022-08-19T14:11:41;32.10;90.50
39099;DHT22;24844;52.380;7.018;2022-08-19T14:14:07;32.10;90.30
39099;DHT22;24844;52.380;7.018;2022-08-19T14:16:32;31.90;90.30
39099;DHT22;24844;52.380;7.018;2022-08-19T14:18:58;31.50;90.50
39099;DHT22;24844;52.380;7.018;2022-08-19T14:21:24;31.50;90.10
39099;DHT22;24844;52.380;7.018;2022-08-19T14:23:51;31.40;90.40
39099;DHT22;24844;52.380;7.018;2022-08-19T14:26:18;31.40;90.30
39099;DHT22;24844;52.380;7.018;2022-08-19T14:28:44;31.30;90.40
39099;DHT22;24844;52.380;7.018;2022-08-19T14:31:12;31.20;90.30
39099;DHT22;24844;52.380;7.018;2022-08-19T14:33:41;31.30;90.00
39099;DHT22;24844;52.380;7.018;2022-08-19T14:36:07;31.10;90.30
39099;DHT22;24844;52.380;7.018;2022-08-19T14:38:33;31.30;90.10
39099;DHT22;24844;52.380;7.018;2022-08-19T14:41:18;31.20;90.10
39099;DHT22;24844;52.380;7.018;2022-08-19T14:43:46;31.30;90.00
39099;DHT22;24844;52.380;7.018;2022-08-19T14:46:18;31.00;90.80
39099;DHT22;24844;52.380;7.018;2022-08-19T14:48:46;30.90;90.80
39099;DHT22;24844;52.380;7.018;2022-08-19T14:51:11;31.20;90.70
39099;DHT22;24844;52.380;7.018;2022-08-19T14:53:37;31.10;91.00
39099;DHT22;24844;52.380;7.018;2022-08-19T14:56:11;31.20;91.00
39099;DHT22;24844;52.380;7.018;2022-08-19T14:58:38;31.20;91.50
39099;DHT22;24844;52.380;7.018;2022-08-19T15:01:05;31.40;90.60
39099;DHT22;24844;52.380;7.018;2022-08-19T15:03:30;31.60;90.00
39099;DHT22;24844;52.380;7.018;2022-08-19T15:05:57;31.40;90.10
39099;DHT22;24844;52.380;7.018;2022-08-19T15:08:23;31.00;90.80
39099;DHT22;24844;52.380;7.018;2022-08-19T15:10:51;31.10;90.90
39099;DHT22;24844;52.380;7.018;2022-08-19T15:13:17;30.40;91.20
39099;DHT22;24844;52.380;7.018;2022-08-19T15:15:43;30.40;91.10
39099;DHT22;24844;52.380;7.018;2022-08-19T15:18:09;30.40;90.90
39099;DHT22;24844;52.380;7.018;2022-08-19T15:20:37;30.40;90.50
39099;DHT22;24844;52.380;7.018;2022-08-19T15:23:03;30.60;90.30
39099;DHT22;24844;52.380;7.018;2022-08-19T15:25:29;30.80;90.30
39099;DHT22;24844;52.380;7.018;2022-08-19T15:27:54;30.80;90.50
39099;DHT22;24844;52.380;7.018;2022-08-19T15:30:26;31.10;90.20
39099;DHT22;24844;52.380;7.018;2022-08-19T15:32:52;31.30;89.80
39099;DHT22;24844;52.380;7.018;2022-08-19T15:35:20;31.10;89.00
39099;DHT22;24844;52.380;7.018;2022-08-19T15:37:50;31.50;88.10
39099;DHT22;24844;52.380;7.018;2022-08-19T15:40:16;31.40;89.30
39099;DHT22;24844;52.380;7.018;2022-08-19T15:42:43;31.10;90.40
39099;DHT22;24844;52.380;7.018;2022-08-19T15:45:10;31.40;90.30
39099;DHT22;24844;52.380;7.018;2022-08-19T15:47:37;31.20;90.80